Main page
METAR-TAF:

METAR-TAF

Airports :

Niamey, Niger

Diori Hamani International Airport

latitude: 13-29N, longitude: 002-10E, elevation: 223 m

Current weather observation

The report was made 38 minutes ago, at 16:00 UTC
Wind 10 kt from the East
Temperature 35°C
Humidity 8%
Pressure 1011 hPa
Visibility: 4800 m
widespread dust

METAR: DRRN 241600Z 08010KT 4800 DU NSC 35/M04 Q1011 NOSIG

Time: 17:38 (16:38 UTC)

Forecast

The report was made 5 hours and 38 minutes ago, at 11:00 UTC
Forecast valid from 24 at 12 UTC to 25 at 18 UTC
Wind 10 kt from the East
Visibility: 4000 m
widespread dust
Temporary
from 24 at 17 UTC to 24 at 20 UTC
Visibility: 2000 m
Becoming
from 24 at 22 UTC to 24 at 24 UTC
Visibility: 6000 m
Temporary
from 25 at 06 UTC to 25 at 10 UTC
Visibility: 2500 m
widespread dust

TAF: DRRN 241100Z 2412/2518 08010KT 4000 DU NSC TEMPO 2417/2420 2000 BECMG 2422/2424 6000 NSW TEMPO 2506/2510 2500 DU

Weather observations and forecasts of more than 4000 airports (METAR and TAF reports).

The available stations are represented by yellow and red dots on the map.

Hover mouse over dot to see the name of the station.

Then click to see weather observations and forecasts.

To change the map : click on the green buttons with a black cross to zoom in, on the green button with a dash to zoom out, or on the green arrows for adjacent maps.


METAR-TAF: